sensor_id;sensor_type;location;lat;lon;timestamp;P1;durP1;ratioP1;P2;durP2;ratioP2
29732;SDS011;16643;43.158;25.302;2022-08-21T00:00:53;18.15;;;6.20;;
29732;SDS011;16643;43.158;25.302;2022-08-21T00:03:18;17.13;;;5.85;;
29732;SDS011;16643;43.158;25.302;2022-08-21T00:05:45;13.23;;;5.35;;
29732;SDS011;16643;43.158;25.302;2022-08-21T00:08:15;13.95;;;5.38;;
29732;SDS011;16643;43.158;25.302;2022-08-21T00:10:42;15.25;;;5.70;;
29732;SDS011;16643;43.158;25.302;2022-08-21T00:13:09;14.43;;;5.03;;
29732;SDS011;16643;43.158;25.302;2022-08-21T00:15:37;11.93;;;4.63;;
29732;SDS011;16643;43.158;25.302;2022-08-21T00:18:04;12.18;;;5.05;;
29732;SDS011;16643;43.158;25.302;2022-08-21T00:20:31;12.60;;;4.90;;
29732;SDS011;16643;43.158;25.302;2022-08-21T00:22:57;8.30;;;4.47;;
29732;SDS011;16643;43.158;25.302;2022-08-21T00:25:23;11.23;;;4.60;;
29732;SDS011;16643;43.158;25.302;2022-08-21T00:27:49;9.95;;;5.35;;
29732;SDS011;16643;43.158;25.302;2022-08-21T00:30:16;14.57;;;6.25;;
29732;SDS011;16643;43.158;25.302;2022-08-21T00:32:43;16.33;;;6.75;;
29732;SDS011;16643;43.158;25.302;2022-08-21T00:35:12;13.85;;;5.43;;
29732;SDS011;16643;43.158;25.302;2022-08-21T00:37:41;12.18;;;5.10;;
29732;SDS011;16643;43.158;25.302;2022-08-21T00:40:09;12.02;;;4.72;;
29732;SDS011;16643;43.158;25.302;2022-08-21T00:42:37;23.42;;;5.53;;
29732;SDS011;16643;43.158;25.302;2022-08-21T00:45:03;12.57;;;5.53;;
29732;SDS011;16643;43.158;25.302;2022-08-21T00:47:34;17.70;;;6.25;;
29732;SDS011;16643;43.158;25.302;2022-08-21T00:50:00;9.65;;;4.35;;
29732;SDS011;16643;43.158;25.302;2022-08-21T00:52:27;15.48;;;5.43;;
29732;SDS011;16643;43.158;25.302;2022-08-21T00:54:55;17.65;;;5.10;;
29732;SDS011;16643;43.158;25.302;2022-08-21T00:57:26;11.63;;;5.60;;
29732;SDS011;16643;43.158;25.302;2022-08-21T00:59:56;9.75;;;5.35;;
29732;SDS011;16643;43.158;25.302;2022-08-21T01:02:25;10.30;;;5.40;;
29732;SDS011;16643;43.158;25.302;2022-08-21T01:04:51;11.73;;;6.55;;
29732;SDS011;16643;43.158;25.302;2022-08-21T01:07:17;9.60;;;6.35;;
29732;SDS011;16643;43.158;25.302;2022-08-21T01:09:42;10.02;;;7.60;;
29732;SDS011;16643;43.158;25.302;2022-08-21T01:14:36;12.60;;;8.65;;
29732;SDS011;16643;43.158;25.302;2022-08-21T01:17:04;13.27;;;10.07;;
29732;SDS011;16643;43.158;25.302;2022-08-21T01:19:31;14.02;;;11.38;;
29732;SDS011;16643;43.158;25.302;2022-08-21T01:21:57;16.92;;;9.57;;
29732;SDS011;16643;43.158;25.302;2022-08-21T01:24:24;15.30;;;10.20;;
29732;SDS011;16643;43.158;25.302;2022-08-21T01:26:50;14.55;;;10.27;;
29732;SDS011;16643;43.158;25.302;2022-08-21T01:31:54;14.20;;;10.65;;
29732;SDS011;16643;43.158;25.302;2022-08-21T01:34:19;14.23;;;10.32;;
29732;SDS011;16643;43.158;25.302;2022-08-21T01:36:45;15.60;;;9.13;;
29732;SDS011;16643;43.158;25.302;2022-08-21T01:39:12;13.45;;;9.32;;
29732;SDS011;16643;43.158;25.302;2022-08-21T01:41:39;16.58;;;11.45;;
29732;SDS011;16643;43.158;25.302;2022-08-21T01:44:05;15.02;;;10.48;;
29732;SDS011;16643;43.158;25.302;2022-08-21T01:46:30;20.80;;;11.88;;
29732;SDS011;16643;43.158;25.302;2022-08-21T01:48:56;16.15;;;11.35;;
29732;SDS011;16643;43.158;25.302;2022-08-21T01:51:22;13.20;;;9.68;;
29732;SDS011;16643;43.158;25.302;2022-08-21T01:53:47;14.77;;;9.00;;
29732;SDS011;16643;43.158;25.302;2022-08-21T01:56:15;14.70;;;8.65;;
29732;SDS011;16643;43.158;25.302;2022-08-21T01:58:43;15.02;;;9.98;;
29732;SDS011;16643;43.158;25.302;2022-08-21T02:01:10;12.73;;;8.32;;
29732;SDS011;16643;43.158;25.302;2022-08-21T02:03:36;10.00;;;8.80;;
29732;SDS011;16643;43.158;25.302;2022-08-21T02:06:03;14.88;;;9.32;;
29732;SDS011;16643;43.158;25.302;2022-08-21T02:08:30;12.95;;;9.60;;
29732;SDS011;16643;43.158;25.302;2022-08-21T02:10:56;12.00;;;9.25;;
29732;SDS011;16643;43.158;25.302;2022-08-21T02:13:22;16.05;;;10.13;;
29732;SDS011;16643;43.158;25.302;2022-08-21T02:15:48;16.13;;;10.02;;
29732;SDS011;16643;43.158;25.302;2022-08-21T02:18:14;16.60;;;9.40;;
29732;SDS011;16643;43.158;25.302;2022-08-21T02:20:47;11.13;;;9.48;;
29732;SDS011;16643;43.158;25.302;2022-08-21T02:23:14;15.77;;;10.85;;
29732;SDS011;16643;43.158;25.302;2022-08-21T02:25:40;13.25;;;10.48;;
29732;SDS011;16643;43.158;25.302;2022-08-21T02:28:08;15.52;;;10.15;;
29732;SDS011;16643;43.158;25.302;2022-08-21T02:30:38;11.95;;;10.23;;
29732;SDS011;16643;43.158;25.302;2022-08-21T02:33:07;16.73;;;10.82;;
29732;SDS011;16643;43.158;25.302;2022-08-21T02:35:34;12.50;;;9.43;;
29732;SDS011;16643;43.158;25.302;2022-08-21T02:38:02;13.85;;;10.18;;
29732;SDS011;16643;43.158;25.302;2022-08-21T02:40:32;14.15;;;10.07;;
29732;SDS011;16643;43.158;25.302;2022-08-21T02:43:00;16.98;;;10.38;;
29732;SDS011;16643;43.158;25.302;2022-08-21T02:45:27;12.60;;;10.80;;
29732;SDS011;16643;43.158;25.302;2022-08-21T02:47:58;15.27;;;10.63;;
29732;SDS011;16643;43.158;25.302;2022-08-21T02:50:27;14.30;;;10.80;;
29732;SDS011;16643;43.158;25.302;2022-08-21T02:52:58;14.30;;;10.63;;
29732;SDS011;16643;43.158;25.302;2022-08-21T02:55:25;13.98;;;10.25;;
29732;SDS011;16643;43.158;25.302;2022-08-21T02:57:52;16.35;;;10.88;;
29732;SDS011;16643;43.158;25.302;2022-08-21T03:00:20;16.13;;;10.77;;
29732;SDS011;16643;43.158;25.302;2022-08-21T03:02:46;18.00;;;11.03;;
29732;SDS011;16643;43.158;25.302;2022-08-21T03:05:13;20.20;;;10.70;;
29732;SDS011;16643;43.158;25.302;2022-08-21T03:07:40;17.43;;;11.77;;
29732;SDS011;16643;43.158;25.302;2022-08-21T03:10:07;17.88;;;11.13;;
29732;SDS011;16643;43.158;25.302;2022-08-21T03:12:34;14.27;;;11.10;;
29732;SDS011;16643;43.158;25.302;2022-08-21T03:15:01;15.65;;;11.95;;
29732;SDS011;16643;43.158;25.302;2022-08-21T03:17:29;17.08;;;11.55;;
29732;SDS011;16643;43.158;25.302;2022-08-21T03:19:55;14.07;;;11.20;;
29732;SDS011;16643;43.158;25.302;2022-08-21T03:22:21;15.43;;;11.38;;
29732;SDS011;16643;43.158;25.302;2022-08-21T03:24:47;12.75;;;10.73;;
29732;SDS011;16643;43.158;25.302;2022-08-21T03:27:12;18.35;;;11.90;;
29732;SDS011;16643;43.158;25.302;2022-08-21T03:29:39;15.10;;;12.02;;
29732;SDS011;16643;43.158;25.302;2022-08-21T03:32:05;12.18;;;10.88;;
29732;SDS011;16643;43.158;25.302;2022-08-21T03:34:34;17.60;;;11.27;;
29732;SDS011;16643;43.158;25.302;2022-08-21T03:37:01;13.27;;;10.90;;
29732;SDS011;16643;43.158;25.302;2022-08-21T03:39:27;20.38;;;12.60;;
29732;SDS011;16643;43.158;25.302;2022-08-21T03:41:53;16.40;;;10.85;;
29732;SDS011;16643;43.158;25.302;2022-08-21T03:44:19;17.92;;;12.50;;
29732;SDS011;16643;43.158;25.302;2022-08-21T03:46:44;17.55;;;12.43;;
29732;SDS011;16643;43.158;25.302;2022-08-21T03:49:10;15.50;;;11.70;;
29732;SDS011;16643;43.158;25.302;2022-08-21T03:51:37;16.30;;;12.07;;
29732;SDS011;16643;43.158;25.302;2022-08-21T03:54:03;18.02;;;11.70;;
29732;SDS011;16643;43.158;25.302;2022-08-21T03:56:29;16.05;;;12.15;;
29732;SDS011;16643;43.158;25.302;2022-08-21T03:58:54;16.15;;;12.38;;
29732;SDS011;16643;43.158;25.302;2022-08-21T04:01:20;16.80;;;12.40;;
29732;SDS011;16643;43.158;25.302;2022-08-21T04:03:46;17.80;;;13.57;;
29732;SDS011;16643;43.158;25.302;2022-08-21T04:06:12;14.02;;;11.95;;
29732;SDS011;16643;43.158;25.302;2022-08-21T04:08:37;18.30;;;12.18;;
29732;SDS011;16643;43.158;25.302;2022-08-21T04:11:03;14.35;;;12.80;;
29732;SDS011;16643;43.158;25.302;2022-08-21T04:13:30;13.23;;;11.85;;
29732;SDS011;16643;43.158;25.302;2022-08-21T04:15:56;16.30;;;11.85;;
29732;SDS011;16643;43.158;25.302;2022-08-21T04:18:23;17.70;;;11.10;;
29732;SDS011;16643;43.158;25.302;2022-08-21T04:20:50;13.68;;;10.85;;
29732;SDS011;16643;43.158;25.302;2022-08-21T04:23:18;19.85;;;11.73;;
29732;SDS011;16643;43.158;25.302;2022-08-21T04:25:45;16.40;;;11.40;;
29732;SDS011;16643;43.158;25.302;2022-08-21T04:28:10;16.42;;;11.40;;
29732;SDS011;16643;43.158;25.302;2022-08-21T04:30:36;14.30;;;11.32;;
29732;SDS011;16643;43.158;25.302;2022-08-21T04:33:01;15.68;;;11.82;;
29732;SDS011;16643;43.158;25.302;2022-08-21T04:35:29;15.15;;;11.13;;
29732;SDS011;16643;43.158;25.302;2022-08-21T04:37:55;13.68;;;10.35;;
29732;SDS011;16643;43.158;25.302;2022-08-21T04:40:23;15.10;;;12.23;;
29732;SDS011;16643;43.158;25.302;2022-08-21T04:42:52;15.98;;;12.00;;
29732;SDS011;16643;43.158;25.302;2022-08-21T04:45:23;20.02;;;13.15;;
29732;SDS011;16643;43.158;25.302;2022-08-21T04:47:52;16.33;;;12.23;;
29732;SDS011;16643;43.158;25.302;2022-08-21T04:50:19;21.63;;;11.13;;
29732;SDS011;16643;43.158;25.302;2022-08-21T04:52:47;16.42;;;10.68;;
29732;SDS011;16643;43.158;25.302;2022-08-21T04:55:14;17.38;;;10.80;;
29732;SDS011;16643;43.158;25.302;2022-08-21T04:57:42;21.00;;;10.50;;
29732;SDS011;16643;43.158;25.302;2022-08-21T05:00:08;16.88;;;11.32;;
29732;SDS011;16643;43.158;25.302;2022-08-21T05:02:36;14.93;;;10.27;;
29732;SDS011;16643;43.158;25.302;2022-08-21T05:05:02;16.35;;;11.73;;
29732;SDS011;16643;43.158;25.302;2022-08-21T05:07:29;25.90;;;11.20;;
29732;SDS011;16643;43.158;25.302;2022-08-21T05:09:56;15.25;;;9.95;;
29732;SDS011;16643;43.158;25.302;2022-08-21T05:12:23;14.80;;;10.15;;
29732;SDS011;16643;43.158;25.302;2022-08-21T05:14:50;16.77;;;11.18;;
29732;SDS011;16643;43.158;25.302;2022-08-21T05:17:17;15.15;;;9.82;;
29732;SDS011;16643;43.158;25.302;2022-08-21T05:19:48;15.70;;;10.93;;
29732;SDS011;16643;43.158;25.302;2022-08-21T05:22:20;20.30;;;12.60;;
29732;SDS011;16643;43.158;25.302;2022-08-21T05:24:47;16.02;;;11.25;;
29732;SDS011;16643;43.158;25.302;2022-08-21T05:27:13;17.52;;;10.85;;
29732;SDS011;16643;43.158;25.302;2022-08-21T05:29:38;19.58;;;11.63;;
29732;SDS011;16643;43.158;25.302;2022-08-21T05:32:08;16.60;;;14.90;;
29732;SDS011;16643;43.158;25.302;2022-08-21T05:34:36;22.50;;;13.10;;
29732;SDS011;16643;43.158;25.302;2022-08-21T05:37:02;18.08;;;13.40;;
29732;SDS011;16643;43.158;25.302;2022-08-21T05:39:28;18.00;;;13.27;;
29732;SDS011;16643;43.158;25.302;2022-08-21T05:41:53;20.30;;;12.65;;
29732;SDS011;16643;43.158;25.302;2022-08-21T05:44:19;18.17;;;11.45;;
29732;SDS011;16643;43.158;25.302;2022-08-21T05:46:44;15.90;;;12.90;;
29732;SDS011;16643;43.158;25.302;2022-08-21T05:49:10;20.35;;;12.48;;
29732;SDS011;16643;43.158;25.302;2022-08-21T05:51:38;23.48;;;12.05;;
29732;SDS011;16643;43.158;25.302;2022-08-21T05:54:05;17.90;;;12.20;;
29732;SDS011;16643;43.158;25.302;2022-08-21T05:56:31;18.23;;;12.52;;
29732;SDS011;16643;43.158;25.302;2022-08-21T05:58:57;18.35;;;13.25;;
29732;SDS011;16643;43.158;25.302;2022-08-21T06:01:23;22.00;;;15.20;;
29732;SDS011;16643;43.158;25.302;2022-08-21T06:03:48;21.85;;;14.73;;
29732;SDS011;16643;43.158;25.302;2022-08-21T06:06:14;17.75;;;15.52;;
29732;SDS011;16643;43.158;25.302;2022-08-21T06:08:40;19.60;;;14.95;;
29732;SDS011;16643;43.158;25.302;2022-08-21T06:11:06;18.40;;;13.90;;
29732;SDS011;16643;43.158;25.302;2022-08-21T06:13:32;22.30;;;15.20;;
29732;SDS011;16643;43.158;25.302;2022-08-21T06:16:03;19.25;;;14.30;;
29732;SDS011;16643;43.158;25.302;2022-08-21T06:18:31;19.17;;;14.20;;
29732;SDS011;16643;43.158;25.302;2022-08-21T06:20:57;16.50;;;13.10;;
29732;SDS011;16643;43.158;25.302;2022-08-21T06:23:23;17.23;;;12.52;;
29732;SDS011;16643;43.158;25.302;2022-08-21T06:25:48;17.67;;;12.88;;
29732;SDS011;16643;43.158;25.302;2022-08-21T06:28:14;13.75;;;11.85;;
29732;SDS011;16643;43.158;25.302;2022-08-21T06:30:40;16.60;;;12.23;;
29732;SDS011;16643;43.158;25.302;2022-08-21T06:33:05;14.05;;;11.95;;
29732;SDS011;16643;43.158;25.302;2022-08-21T06:35:32;16.95;;;11.40;;
29732;SDS011;16643;43.158;25.302;2022-08-21T06:37:58;15.90;;;10.50;;
29732;SDS011;16643;43.158;25.302;2022-08-21T06:40:24;16.17;;;10.57;;
29732;SDS011;16643;43.158;25.302;2022-08-21T06:42:51;19.03;;;11.10;;
29732;SDS011;16643;43.158;25.302;2022-08-21T06:45:16;15.20;;;11.25;;
29732;SDS011;16643;43.158;25.302;2022-08-21T06:47:42;21.73;;;13.70;;
29732;SDS011;16643;43.158;25.302;2022-08-21T06:50:08;17.15;;;14.48;;
29732;SDS011;16643;43.158;25.302;2022-08-21T06:52:37;24.00;;;14.68;;
29732;SDS011;16643;43.158;25.302;2022-08-21T06:55:04;18.65;;;15.20;;
29732;SDS011;16643;43.158;25.302;2022-08-21T06:59:57;17.70;;;14.43;;
29732;SDS011;16643;43.158;25.302;2022-08-21T07:02:22;23.20;;;15.50;;
29732;SDS011;16643;43.158;25.302;2022-08-21T07:04:48;18.52;;;14.43;;
29732;SDS011;16643;43.158;25.302;2022-08-21T07:07:13;18.40;;;11.82;;
29732;SDS011;16643;43.158;25.302;2022-08-21T07:09:39;16.13;;;11.88;;
29732;SDS011;16643;43.158;25.302;2022-08-21T07:12:05;17.15;;;10.98;;
29732;SDS011;16643;43.158;25.302;2022-08-21T07:14:31;18.10;;;11.48;;
29732;SDS011;16643;43.158;25.302;2022-08-21T07:16:57;14.73;;;11.20;;
29732;SDS011;16643;43.158;25.302;2022-08-21T07:19:22;16.08;;;10.98;;
29732;SDS011;16643;43.158;25.302;2022-08-21T07:21:48;14.23;;;10.85;;
29732;SDS011;16643;43.158;25.302;2022-08-21T07:24:14;13.85;;;9.23;;
29732;SDS011;16643;43.158;25.302;2022-08-21T07:26:40;14.95;;;8.63;;
29732;SDS011;16643;43.158;25.302;2022-08-21T07:29:06;15.05;;;10.75;;
29732;SDS011;16643;43.158;25.302;2022-08-21T07:31:31;18.55;;;10.95;;
29732;SDS011;16643;43.158;25.302;2022-08-21T07:33:57;15.05;;;9.27;;
29732;SDS011;16643;43.158;25.302;2022-08-21T07:36:23;16.77;;;10.80;;
29732;SDS011;16643;43.158;25.302;2022-08-21T07:38:48;17.02;;;12.45;;
29732;SDS011;16643;43.158;25.302;2022-08-21T07:41:18;16.35;;;13.20;;
29732;SDS011;16643;43.158;25.302;2022-08-21T07:43:46;17.50;;;13.20;;
29732;SDS011;16643;43.158;25.302;2022-08-21T07:46:12;20.02;;;12.65;;
29732;SDS011;16643;43.158;25.302;2022-08-21T07:48:38;16.88;;;13.38;;
29732;SDS011;16643;43.158;25.302;2022-08-21T07:51:06;18.73;;;13.60;;
29732;SDS011;16643;43.158;25.302;2022-08-21T07:53:34;19.40;;;13.90;;
29732;SDS011;16643;43.158;25.302;2022-08-21T07:56:02;14.75;;;13.13;;
29732;SDS011;16643;43.158;25.302;2022-08-21T08:00:55;18.88;;;12.63;;
29732;SDS011;16643;43.158;25.302;2022-08-21T08:03:20;15.93;;;11.35;;
29732;SDS011;16643;43.158;25.302;2022-08-21T08:05:46;17.70;;;12.95;;
29732;SDS011;16643;43.158;25.302;2022-08-21T08:08:12;21.70;;;15.60;;
29732;SDS011;16643;43.158;25.302;2022-08-21T08:10:37;26.90;;;20.77;;
29732;SDS011;16643;43.158;25.302;2022-08-21T08:13:04;20.70;;;16.92;;
29732;SDS011;16643;43.158;25.302;2022-08-21T08:15:30;17.92;;;12.85;;
29732;SDS011;16643;43.158;25.302;2022-08-21T08:17:56;21.17;;;12.68;;
29732;SDS011;16643;43.158;25.302;2022-08-21T08:20:22;16.98;;;12.80;;
29732;SDS011;16643;43.158;25.302;2022-08-21T08:22:51;15.88;;;12.52;;
29732;SDS011;16643;43.158;25.302;2022-08-21T08:25:17;14.48;;;12.40;;
29732;SDS011;16643;43.158;25.302;2022-08-21T08:27:44;18.40;;;12.25;;
29732;SDS011;16643;43.158;25.302;2022-08-21T08:30:11;15.20;;;11.60;;
29732;SDS011;16643;43.158;25.302;2022-08-21T08:32:38;16.70;;;11.57;;
29732;SDS011;16643;43.158;25.302;2022-08-21T08:35:05;18.98;;;12.10;;
29732;SDS011;16643;43.158;25.302;2022-08-21T08:37:32;18.85;;;11.68;;
29732;SDS011;16643;43.158;25.302;2022-08-21T08:39:58;16.33;;;12.13;;
29732;SDS011;16643;43.158;25.302;2022-08-21T08:42:25;18.10;;;12.85;;
29732;SDS011;16643;43.158;25.302;2022-08-21T08:44:59;14.32;;;11.23;;
29732;SDS011;16643;43.158;25.302;2022-08-21T08:47:28;15.73;;;10.43;;
29732;SDS011;16643;43.158;25.302;2022-08-21T08:52:32;16.15;;;10.65;;
29732;SDS011;16643;43.158;25.302;2022-08-21T08:57:31;15.50;;;10.48;;
29732;SDS011;16643;43.158;25.302;2022-08-21T08:59:59;12.07;;;9.68;;
29732;SDS011;16643;43.158;25.302;2022-08-21T09:02:27;15.27;;;10.30;;
29732;SDS011;16643;43.158;25.302;2022-08-21T09:04:53;13.52;;;9.63;;
29732;SDS011;16643;43.158;25.302;2022-08-21T09:10:29;14.93;;;10.30;;
29732;SDS011;16643;43.158;25.302;2022-08-21T09:16:04;13.18;;;8.85;;
29732;SDS011;16643;43.158;25.302;2022-08-21T09:21:33;12.10;;;9.55;;
29732;SDS011;16643;43.158;25.302;2022-08-21T09:27:14;14.25;;;10.18;;
29732;SDS011;16643;43.158;25.302;2022-08-21T09:29:42;14.45;;;10.20;;
29732;SDS011;16643;43.158;25.302;2022-08-21T09:32:20;14.07;;;10.02;;
29732;SDS011;16643;43.158;25.302;2022-08-21T09:37:44;13.05;;;8.82;;
29732;SDS011;16643;43.158;25.302;2022-08-21T09:43:05;12.90;;;9.70;;
29732;SDS011;16643;43.158;25.302;2022-08-21T09:46:02;13.80;;;11.15;;
29732;SDS011;16643;43.158;25.302;2022-08-21T09:48:29;14.20;;;10.18;;
29732;SDS011;16643;43.158;25.302;2022-08-21T09:51:16;15.68;;;10.25;;
29732;SDS011;16643;43.158;25.302;2022-08-21T09:53:46;13.27;;;9.93;;
29732;SDS011;16643;43.158;25.302;2022-08-21T09:56:28;14.90;;;9.95;;
29732;SDS011;16643;43.158;25.302;2022-08-21T09:59:16;10.63;;;9.27;;
29732;SDS011;16643;43.158;25.302;2022-08-21T10:01:51;17.92;;;10.25;;
29732;SDS011;16643;43.158;25.302;2022-08-21T10:04:19;13.13;;;9.63;;
29732;SDS011;16643;43.158;25.302;2022-08-21T10:06:47;14.40;;;10.38;;
29732;SDS011;16643;43.158;25.302;2022-08-21T10:09:14;17.95;;;9.23;;
29732;SDS011;16643;43.158;25.302;2022-08-21T10:11:47;14.70;;;9.95;;
29732;SDS011;16643;43.158;25.302;2022-08-21T10:20:10;14.07;;;10.13;;
29732;SDS011;16643;43.158;25.302;2022-08-21T10:25:36;12.57;;;10.20;;
29732;SDS011;16643;43.158;25.302;2022-08-21T10:30:50;15.38;;;10.18;;
29732;SDS011;16643;43.158;25.302;2022-08-21T10:33:33;16.23;;;10.98;;
29732;SDS011;16643;43.158;25.302;2022-08-21T10:36:17;14.75;;;10.98;;
29732;SDS011;16643;43.158;25.302;2022-08-21T10:44:39;13.57;;;9.52;;
29732;SDS011;16643;43.158;25.302;2022-08-21T10:52:56;12.63;;;9.68;;
29732;SDS011;16643;43.158;25.302;2022-08-21T10:55:26;13.82;;;10.15;;
29732;SDS011;16643;43.158;25.302;2022-08-21T10:58:01;15.55;;;9.82;;
29732;SDS011;16643;43.158;25.302;2022-08-21T11:00:35;12.75;;;9.85;;
29732;SDS011;16643;43.158;25.302;2022-08-21T11:03:16;11.80;;;9.07;;
29732;SDS011;16643;43.158;25.302;2022-08-21T11:05:50;15.65;;;10.05;;
29732;SDS011;16643;43.158;25.302;2022-08-21T11:08:28;16.08;;;9.38;;
29732;SDS011;16643;43.158;25.302;2022-08-21T11:11:06;13.13;;;8.82;;
29732;SDS011;16643;43.158;25.302;2022-08-21T11:13:42;11.75;;;9.10;;
29732;SDS011;16643;43.158;25.302;2022-08-21T11:16:37;11.75;;;9.10;;
29732;SDS011;16643;43.158;25.302;2022-08-21T11:19:06;12.85;;;8.93;;
29732;SDS011;16643;43.158;25.302;2022-08-21T11:21:47;13.15;;;9.80;;
29732;SDS011;16643;43.158;25.302;2022-08-21T11:27:12;12.23;;;9.85;;
29732;SDS011;16643;43.158;25.302;2022-08-21T11:30:01;15.40;;;9.68;;
29732;SDS011;16643;43.158;25.302;2022-08-21T11:38:31;12.88;;;9.45;;
29732;SDS011;16643;43.158;25.302;2022-08-21T11:43:53;13.98;;;9.93;;
29732;SDS011;16643;43.158;25.302;2022-08-21T11:52:09;11.73;;;8.90;;
29732;SDS011;16643;43.158;25.302;2022-08-21T11:54:37;15.13;;;9.27;;
29732;SDS011;16643;43.158;25.302;2022-08-21T11:59:49;11.57;;;9.02;;
29732;SDS011;16643;43.158;25.302;2022-08-21T12:02:23;11.25;;;9.30;;
29732;SDS011;16643;43.158;25.302;2022-08-21T12:04:55;13.40;;;9.05;;
29732;SDS011;16643;43.158;25.302;2022-08-21T12:07:59;13.02;;;10.07;;
29732;SDS011;16643;43.158;25.302;2022-08-21T12:10:30;12.38;;;9.45;;
29732;SDS011;16643;43.158;25.302;2022-08-21T12:13:05;15.10;;;9.70;;
29732;SDS011;16643;43.158;25.302;2022-08-21T12:15:36;11.30;;;8.90;;
29732;SDS011;16643;43.158;25.302;2022-08-21T12:21:00;13.82;;;9.55;;
29732;SDS011;16643;43.158;25.302;2022-08-21T12:23:48;13.73;;;9.15;;
29732;SDS011;16643;43.158;25.302;2022-08-21T12:29:14;13.13;;;9.32;;
29732;SDS011;16643;43.158;25.302;2022-08-21T12:31:55;12.77;;;9.38;;
29732;SDS011;16643;43.158;25.302;2022-08-21T12:34:22;11.95;;;8.98;;
29732;SDS011;16643;43.158;25.302;2022-08-21T12:37:05;14.65;;;10.15;;
29732;SDS011;16643;43.158;25.302;2022-08-21T12:39:39;14.15;;;9.50;;
29732;SDS011;16643;43.158;25.302;2022-08-21T12:42:31;12.30;;;9.57;;
29732;SDS011;16643;43.158;25.302;2022-08-21T12:45:49;11.18;;;8.80;;
29732;SDS011;16643;43.158;25.302;2022-08-21T12:50:36;13.13;;;9.27;;
29732;SDS011;16643;43.158;25.302;2022-08-21T12:55:41;14.15;;;8.88;;
29732;SDS011;16643;43.158;25.302;2022-08-21T12:58:21;13.85;;;10.13;;
29732;SDS011;16643;43.158;25.302;2022-08-21T13:01:20;14.88;;;9.48;;
29732;SDS011;16643;43.158;25.302;2022-08-21T13:03:50;13.77;;;9.65;;
29732;SDS011;16643;43.158;25.302;2022-08-21T13:06:20;13.15;;;8.50;;
29732;SDS011;16643;43.158;25.302;2022-08-21T13:08:48;15.52;;;9.18;;
29732;SDS011;16643;43.158;25.302;2022-08-21T13:11:21;12.73;;;8.82;;
29732;SDS011;16643;43.158;25.302;2022-08-21T13:13:49;11.80;;;8.70;;
29732;SDS011;16643;43.158;25.302;2022-08-21T13:16:24;12.98;;;9.27;;
29732;SDS011;16643;43.158;25.302;2022-08-21T13:18:59;13.57;;;8.60;;
29732;SDS011;16643;43.158;25.302;2022-08-21T13:21:49;12.20;;;8.52;;
29732;SDS011;16643;43.158;25.302;2022-08-21T13:27:15;12.55;;;9.48;;
29732;SDS011;16643;43.158;25.302;2022-08-21T13:32:27;11.65;;;8.32;;
29732;SDS011;16643;43.158;25.302;2022-08-21T13:34:57;12.10;;;9.13;;
29732;SDS011;16643;43.158;25.302;2022-08-21T13:37:25;12.20;;;9.43;;
29732;SDS011;16643;43.158;25.302;2022-08-21T13:39:53;11.88;;;8.27;;
29732;SDS011;16643;43.158;25.302;2022-08-21T13:42:19;11.70;;;9.82;;
29732;SDS011;16643;43.158;25.302;2022-08-21T13:44:46;13.05;;;7.85;;
29732;SDS011;16643;43.158;25.302;2022-08-21T13:47:14;10.90;;;9.13;;
29732;SDS011;16643;43.158;25.302;2022-08-21T13:49:44;11.63;;;8.85;;
29732;SDS011;16643;43.158;25.302;2022-08-21T13:52:19;12.45;;;8.63;;
29732;SDS011;16643;43.158;25.302;2022-08-21T13:54:57;16.88;;;10.57;;
29732;SDS011;16643;43.158;25.302;2022-08-21T13:57:34;10.02;;;7.90;;
29732;SDS011;16643;43.158;25.302;2022-08-21T14:00:19;13.48;;;9.70;;
29732;SDS011;16643;43.158;25.302;2022-08-21T14:02:52;11.98;;;7.95;;
29732;SDS011;16643;43.158;25.302;2022-08-21T14:05:28;17.35;;;10.50;;
29732;SDS011;16643;43.158;25.302;2022-08-21T14:08:00;14.27;;;9.25;;
29732;SDS011;16643;43.158;25.302;2022-08-21T14:10:29;11.23;;;9.50;;
29732;SDS011;16643;43.158;25.302;2022-08-21T14:13:03;14.60;;;9.70;;
29732;SDS011;16643;43.158;25.302;2022-08-21T14:15:32;11.65;;;9.55;;
29732;SDS011;16643;43.158;25.302;2022-08-21T14:18:09;17.33;;;10.48;;
29732;SDS011;16643;43.158;25.302;2022-08-21T14:20:40;14.63;;;8.95;;
29732;SDS011;16643;43.158;25.302;2022-08-21T14:23:06;12.10;;;8.13;;
29732;SDS011;16643;43.158;25.302;2022-08-21T14:25:39;9.13;;;7.22;;
29732;SDS011;16643;43.158;25.302;2022-08-21T14:28:15;15.15;;;7.03;;
29732;SDS011;16643;43.158;25.302;2022-08-21T14:30:48;14.13;;;6.82;;
29732;SDS011;16643;43.158;25.302;2022-08-21T14:35:59;12.63;;;6.03;;
29732;SDS011;16643;43.158;25.302;2022-08-21T14:38:27;11.18;;;6.03;;
29732;SDS011;16643;43.158;25.302;2022-08-21T14:40:56;14.50;;;7.15;;
29732;SDS011;16643;43.158;25.302;2022-08-21T14:43:25;11.40;;;6.88;;
29732;SDS011;16643;43.158;25.302;2022-08-21T14:45:53;11.20;;;7.18;;
29732;SDS011;16643;43.158;25.302;2022-08-21T14:48:19;13.88;;;6.38;;
29732;SDS011;16643;43.158;25.302;2022-08-21T14:50:45;12.82;;;6.57;;
29732;SDS011;16643;43.158;25.302;2022-08-21T14:53:11;11.50;;;6.30;;
29732;SDS011;16643;43.158;25.302;2022-08-21T14:55:37;13.07;;;6.25;;
29732;SDS011;16643;43.158;25.302;2022-08-21T14:58:23;12.43;;;7.18;;
29732;SDS011;16643;43.158;25.302;2022-08-21T15:00:50;10.25;;;6.25;;
29732;SDS011;16643;43.158;25.302;2022-08-21T15:03:19;12.10;;;5.97;;
29732;SDS011;16643;43.158;25.302;2022-08-21T15:05:47;11.82;;;6.07;;
29732;SDS011;16643;43.158;25.302;2022-08-21T15:08:13;14.68;;;6.30;;
29732;SDS011;16643;43.158;25.302;2022-08-21T15:10:39;12.20;;;6.32;;
29732;SDS011;16643;43.158;25.302;2022-08-21T15:13:05;8.43;;;6.25;;
29732;SDS011;16643;43.158;25.302;2022-08-21T15:15:36;10.43;;;5.95;;
29732;SDS011;16643;43.158;25.302;2022-08-21T15:18:05;10.73;;;6.10;;
29732;SDS011;16643;43.158;25.302;2022-08-21T15:20:31;10.88;;;6.38;;
29732;SDS011;16643;43.158;25.302;2022-08-21T15:22:57;8.25;;;5.85;;
29732;SDS011;16643;43.158;25.302;2022-08-21T15:25:22;7.75;;;5.93;;
29732;SDS011;16643;43.158;25.302;2022-08-21T15:27:48;8.32;;;5.57;;
29732;SDS011;16643;43.158;25.302;2022-08-21T15:30:13;10.32;;;6.30;;
29732;SDS011;16643;43.158;25.302;2022-08-21T15:32:40;9.13;;;5.65;;
29732;SDS011;16643;43.158;25.302;2022-08-21T15:35:07;8.77;;;6.82;;
29732;SDS011;16643;43.158;25.302;2022-08-21T15:37:33;11.30;;;6.23;;
29732;SDS011;16643;43.158;25.302;2022-08-21T15:39:59;13.90;;;5.93;;
29732;SDS011;16643;43.158;25.302;2022-08-21T15:42:25;9.32;;;6.38;;
29732;SDS011;16643;43.158;25.302;2022-08-21T15:44:52;9.77;;;6.25;;
29732;SDS011;16643;43.158;25.302;2022-08-21T15:47:21;11.90;;;6.63;;
29732;SDS011;16643;43.158;25.302;2022-08-21T15:49:49;14.23;;;5.80;;
29732;SDS011;16643;43.158;25.302;2022-08-21T15:52:17;9.68;;;6.55;;
29732;SDS011;16643;43.158;25.302;2022-08-21T15:54:45;9.95;;;6.95;;
29732;SDS011;16643;43.158;25.302;2022-08-21T15:57:12;13.23;;;6.95;;
29732;SDS011;16643;43.158;25.302;2022-08-21T15:59:40;11.35;;;6.90;;
29732;SDS011;16643;43.158;25.302;2022-08-21T16:02:12;11.73;;;6.95;;